createdAt,value
2022-09-06T00:01:17.121Z,84.51
2022-09-06T00:03:46.788Z,83.47
2022-09-06T00:06:19.977Z,84.11
2022-09-06T00:08:49.904Z,84.48
2022-09-06T00:11:19.081Z,85.38
2022-09-06T00:13:48.101Z,86.51
2022-09-06T00:16:26.325Z,86.21
2022-09-06T00:18:55.948Z,87.46
2022-09-06T00:21:30.115Z,87.38
2022-09-06T00:23:58.894Z,87.21
2022-09-06T00:26:27.502Z,87.48
2022-09-06T00:28:55.200Z,87.61
2022-09-06T00:31:26.863Z,87.67
2022-09-06T00:33:55.815Z,88.25
2022-09-06T00:36:24.214Z,88.34
2022-09-06T00:38:51.969Z,88.79
2022-09-06T00:41:20.926Z,88.08
2022-09-06T00:43:48.757Z,88.97
2022-09-06T00:46:26.639Z,89.07
2022-09-06T00:49:33.239Z,89.27
2022-09-06T00:52:20.643Z,89.84
2022-09-06T00:54:51.191Z,90.27
2022-09-06T00:57:20.403Z,90.36
2022-09-06T00:59:48.968Z,89.97
2022-09-06T01:02:16.838Z,90.64
2022-09-06T01:04:48.326Z,90.97
2022-09-06T01:08:08.466Z,90.96
2022-09-06T01:11:05.222Z,90.33
2022-09-06T01:14:05.002Z,90.50
2022-09-06T01:17:21.599Z,90.13
2022-09-06T01:20:31.857Z,88.79
2022-09-06T01:23:58.314Z,88.61
2022-09-06T01:27:29.093Z,90.53
2022-09-06T01:30:09.620Z,91.19
2022-09-06T01:32:56.996Z,91.25
2022-09-06T01:36:14.143Z,91.53
2022-09-06T01:38:42.022Z,91.88
2022-09-06T01:41:11.464Z,92.18
2022-09-06T01:43:47.712Z,92.02
2022-09-06T01:46:42.190Z,92.07
2022-09-06T01:49:37.683Z,92.30
2022-09-06T01:52:34.773Z,92.91
2022-09-06T01:55:28.346Z,92.62
2022-09-06T01:58:39.666Z,91.67
2022-09-06T02:01:46.643Z,90.85
2022-09-06T02:04:56.234Z,91.38
2022-09-06T02:07:30.207Z,92.16
2022-09-06T02:10:32.351Z,92.77
2022-09-06T02:13:03.064Z,92.32
2022-09-06T02:15:41.665Z,92.51
2022-09-06T02:18:25.028Z,90.61
2022-09-06T02:20:58.760Z,89.22
2022-09-06T02:23:34.306Z,90.66
2022-09-06T02:26:28.516Z,89.89
2022-09-06T02:28:58.281Z,88.22
2022-09-06T02:31:35.219Z,89.47
2022-09-06T02:34:03.753Z,89.48
2022-09-06T02:36:35.381Z,90.93
2022-09-06T02:39:05.414Z,88.96
2022-09-06T02:41:34.982Z,88.24
2022-09-06T02:44:04.011Z,89.34
2022-09-06T02:46:31.792Z,89.75
2022-09-06T02:49:00.498Z,89.27
2022-09-06T02:51:29.111Z,89.94
2022-09-06T02:53:57.810Z,90.14
2022-09-06T02:56:26.425Z,90.43
2022-09-06T02:58:55.722Z,90.79
2022-09-06T03:01:24.406Z,90.77
2022-09-06T03:03:53.127Z,90.05
2022-09-06T03:06:21.955Z,90.48
2022-09-06T03:08:51.604Z,91.00
2022-09-06T03:11:20.261Z,90.24
2022-09-06T03:13:51.168Z,91.32
2022-09-06T03:16:20.976Z,90.98
2022-09-06T03:18:50.010Z,90.29
2022-09-06T03:21:18.652Z,89.52
2022-09-06T03:23:47.183Z,90.48
2022-09-06T03:26:15.814Z,91.05
2022-09-06T03:28:44.413Z,90.56
2022-09-06T03:31:13.370Z,90.04
2022-09-06T03:33:41.963Z,87.46
2022-09-06T03:36:10.713Z,88.69
2022-09-06T03:38:39.288Z,89.18
2022-09-06T03:41:07.890Z,88.02
2022-09-06T03:43:36.764Z,87.38
2022-09-06T03:46:05.650Z,87.32
2022-09-06T03:48:34.327Z,87.50
2022-09-06T03:51:02.990Z,86.93
2022-09-06T03:53:31.684Z,86.82
2022-09-06T03:56:00.470Z,85.50
2022-09-06T03:58:33.788Z,86.78
2022-09-06T04:01:12.205Z,87.57
2022-09-06T04:03:41.661Z,87.61
2022-09-06T04:06:10.937Z,86.80
2022-09-06T04:08:40.368Z,86.67
2022-09-06T04:11:09.006Z,85.40
2022-09-06T04:13:38.261Z,85.92
2022-09-06T04:16:07.817Z,84.80
2022-09-06T04:18:36.700Z,82.98
2022-09-06T04:21:05.023Z,84.76
2022-09-06T04:23:35.367Z,84.95
2022-09-06T04:26:07.100Z,87.54
2022-09-06T04:28:34.941Z,88.07
2022-09-06T04:31:05.356Z,87.06
2022-09-06T04:33:37.279Z,83.87
2022-09-06T04:36:10.205Z,83.76
2022-09-06T04:38:45.057Z,85.34
2022-09-06T04:41:19.020Z,86.14
2022-09-06T04:43:47.934Z,85.29
2022-09-06T04:46:27.502Z,83.18
2022-09-06T04:48:57.801Z,83.76
2022-09-06T04:51:26.754Z,82.41
2022-09-06T04:53:55.315Z,81.63
2022-09-06T04:56:26.505Z,81.81
2022-09-06T04:58:56.401Z,79.96
2022-09-06T05:01:26.583Z,81.27
2022-09-06T05:03:56.900Z,83.37
2022-09-06T05:06:26.028Z,84.80
2022-09-06T05:08:54.731Z,84.26
2022-09-06T05:11:23.549Z,83.08
2022-09-06T05:13:52.206Z,80.31
2022-09-06T05:16:20.820Z,80.04
2022-09-06T05:18:49.471Z,78.66
2022-09-06T05:21:18.195Z,77.46
2022-09-06T05:23:46.926Z,76.77
2022-09-06T05:26:15.601Z,75.84
2022-09-06T05:28:43.427Z,75.97
2022-09-06T05:31:30.775Z,77.02
2022-09-06T05:33:59.970Z,75.98
2022-09-06T05:36:30.766Z,76.01
2022-09-06T05:39:00.050Z,75.25
2022-09-06T05:41:28.870Z,75.27
2022-09-06T05:43:57.489Z,74.46
2022-09-06T05:46:26.683Z,72.36
2022-09-06T05:49:07.916Z,72.21
2022-09-06T05:51:36.546Z,70.68
2022-09-06T05:54:05.448Z,69.74
2022-09-06T05:56:34.151Z,67.00
2022-09-06T05:59:01.936Z,65.56
2022-09-06T06:01:31.644Z,62.32
2022-09-06T06:04:03.681Z,56.18
2022-09-06T06:06:35.058Z,55.78
2022-09-06T06:09:03.733Z,57.42
2022-09-06T06:11:32.835Z,63.15
2022-09-06T06:14:00.825Z,64.45
2022-09-06T06:16:29.812Z,63.80
2022-09-06T06:18:58.650Z,63.46
2022-09-06T06:21:31.273Z,59.72
2022-09-06T06:24:05.255Z,60.41
2022-09-06T06:26:37.057Z,59.93
2022-09-06T06:29:09.632Z,62.11
2022-09-06T06:31:39.651Z,59.82
2022-09-06T06:34:08.757Z,45.18
2022-09-06T06:36:38.427Z,42.23
2022-09-06T06:39:08.832Z,38.00
2022-09-06T06:41:37.866Z,37.66
2022-09-06T06:44:07.293Z,42.42
2022-09-06T06:46:38.592Z,50.88
2022-09-06T06:49:07.261Z,54.26
2022-09-06T06:51:37.417Z,54.50
2022-09-06T06:54:06.735Z,54.09
2022-09-06T06:56:40.991Z,54.50
2022-09-06T06:59:09.584Z,54.79
2022-09-06T07:01:38.797Z,53.43
2022-09-06T07:04:10.022Z,52.46
2022-09-06T07:12:33.331Z,53.64
2022-09-06T07:15:01.924Z,52.27
2022-09-06T07:17:30.936Z,52.33
2022-09-06T07:20:15.282Z,51.18
2022-09-06T07:22:44.310Z,46.82
2022-09-06T07:25:21.014Z,47.75
2022-09-06T07:27:57.145Z,50.30
2022-09-06T07:30:25.824Z,50.64
2022-09-06T07:32:54.504Z,50.44
2022-09-06T07:35:23.079Z,50.42
2022-09-06T07:38:01.331Z,49.98
2022-09-06T07:40:31.681Z,50.59
2022-09-06T07:43:00.885Z,49.35
2022-09-06T07:45:29.331Z,49.57
2022-09-06T07:47:59.845Z,48.41
2022-09-06T07:50:48.011Z,48.55
2022-09-06T07:53:29.250Z,48.22
2022-09-06T07:56:01.352Z,48.44
2022-09-06T07:58:32.464Z,47.75
2022-09-06T08:01:30.445Z,48.31
2022-09-06T08:04:02.543Z,48.60
2022-09-06T08:09:24.227Z,46.67
2022-09-06T08:11:52.965Z,46.55
2022-09-06T08:14:21.508Z,46.26
2022-09-06T08:16:50.613Z,46.36
2022-09-06T08:19:19.075Z,46.23
2022-09-06T08:21:47.538Z,45.66
2022-09-06T08:24:16.285Z,45.85
2022-09-06T08:26:44.879Z,46.21
2022-09-06T08:29:14.498Z,45.61
2022-09-06T08:31:45.325Z,45.75
2022-09-06T08:34:15.335Z,45.12
2022-09-06T08:36:45.585Z,45.61
2022-09-06T08:39:14.100Z,46.06
2022-09-06T08:42:05.748Z,45.23
2022-09-06T08:44:55.104Z,45.76
2022-09-06T08:47:24.954Z,45.67
2022-09-06T08:50:01.885Z,44.50
2022-09-06T08:53:16.092Z,45.00
2022-09-06T08:56:28.828Z,45.07
2022-09-06T08:59:07.774Z,44.50
2022-09-06T09:02:19.255Z,44.14
2022-09-06T09:05:01.853Z,44.67
2022-09-06T09:07:46.159Z,44.53
2022-09-06T09:10:35.040Z,43.51
2022-09-06T09:13:09.727Z,44.23
2022-09-06T09:15:40.447Z,45.35
2022-09-06T09:18:09.489Z,44.22
2022-09-06T09:20:39.734Z,45.98
2022-09-06T09:23:08.160Z,46.84
2022-09-06T09:25:39.429Z,45.38
2022-09-06T09:28:18.484Z,46.71
2022-09-06T09:30:56.603Z,44.74
2022-09-06T09:33:30.185Z,43.31
2022-09-06T09:36:14.104Z,42.88
2022-09-06T09:38:51.875Z,44.05
2022-09-06T09:41:38.662Z,45.04
2022-09-06T09:44:17.803Z,46.31
2022-09-06T09:46:46.420Z,44.71
2022-09-06T09:49:27.725Z,42.90
2022-09-06T09:52:15.154Z,43.36
2022-09-06T09:54:47.791Z,42.63
2022-09-06T09:57:20.030Z,42.32
2022-09-06T10:00:06.515Z,45.89
2022-09-06T10:02:39.328Z,47.40
2022-09-06T10:05:13.205Z,45.53
2022-09-06T10:07:55.161Z,44.94
2022-09-06T10:10:36.269Z,43.65
2022-09-06T10:13:19.561Z,44.52
2022-09-06T10:15:51.096Z,45.59
2022-09-06T10:18:44.613Z,43.76
2022-09-06T10:21:22.446Z,43.75
2022-09-06T10:24:31.722Z,43.75
2022-09-06T10:27:02.628Z,43.33
2022-09-06T10:30:07.238Z,44.85
2022-09-06T10:32:49.616Z,43.08
2022-09-06T10:35:37.588Z,43.65
2022-09-06T10:38:51.454Z,44.03
2022-09-06T10:41:57.252Z,43.90
2022-09-06T10:45:20.570Z,42.75
2022-09-06T10:48:23.889Z,42.87
2022-09-06T10:51:01.874Z,42.77
2022-09-06T10:54:09.707Z,41.96
2022-09-06T10:56:55.479Z,43.14
2022-09-06T10:59:42.317Z,42.82
2022-09-06T11:02:48.706Z,41.35
2022-09-06T11:05:41.271Z,42.58
2022-09-06T11:12:14.867Z,41.13
2022-09-06T11:14:43.516Z,40.63
2022-09-06T11:17:48.092Z,40.53
2022-09-06T11:20:47.116Z,42.25
2022-09-06T11:23:51.088Z,42.02
2022-09-06T11:26:35.315Z,41.65
2022-09-06T11:29:27.834Z,41.39
2022-09-06T11:32:20.506Z,41.43
2022-09-06T11:34:57.851Z,43.18
2022-09-06T11:37:36.374Z,41.88
2022-09-06T11:43:49.531Z,43.05
2022-09-06T11:46:36.225Z,43.21
2022-09-06T11:49:09.384Z,44.67
2022-09-06T11:51:45.504Z,45.21
2022-09-06T11:54:24.512Z,44.13
2022-09-06T11:57:12.659Z,44.92
2022-09-06T11:59:47.758Z,44.46
2022-09-06T12:02:35.845Z,43.94
2022-09-06T12:05:07.476Z,42.53
2022-09-06T12:07:39.319Z,42.73
2022-09-06T12:11:04.980Z,43.77
2022-09-06T12:13:46.250Z,44.90
2022-09-06T12:16:17.708Z,44.51
2022-09-06T12:18:49.172Z,45.26
2022-09-06T12:21:52.516Z,44.53
2022-09-06T12:24:47.446Z,45.57
2022-09-06T12:27:22.812Z,45.30
2022-09-06T12:30:11.544Z,44.88
2022-09-06T12:32:52.260Z,45.09
2022-09-06T12:38:25.974Z,44.97
2022-09-06T12:40:59.200Z,45.07
2022-09-06T12:43:28.451Z,45.26
2022-09-06T12:45:56.992Z,44.73
2022-09-06T12:48:41.393Z,44.01
2022-09-06T12:51:20.367Z,44.69
2022-09-06T12:54:02.022Z,44.96
2022-09-06T12:56:34.502Z,45.34
2022-09-06T12:59:32.589Z,46.00
2022-09-06T13:02:20.928Z,43.59
2022-09-06T13:05:06.857Z,44.40
2022-09-06T13:07:48.148Z,42.31
2022-09-06T13:10:27.348Z,44.47
2022-09-06T13:12:58.913Z,44.46
2022-09-06T13:15:31.393Z,44.88
2022-09-06T13:18:27.249Z,44.38
2022-09-06T13:21:14.282Z,44.39
2022-09-06T13:23:53.658Z,45.16
2022-09-06T13:26:40.230Z,45.13
2022-09-06T13:29:17.678Z,44.85
2022-09-06T13:31:52.639Z,45.17
2022-09-06T13:34:34.349Z,45.13
2022-09-06T13:37:09.398Z,44.95
2022-09-06T13:39:46.527Z,46.72
2022-09-06T13:42:36.783Z,45.88
2022-09-06T13:45:29.439Z,46.73
2022-09-06T13:48:13.133Z,46.72
2022-09-06T13:50:46.275Z,46.88
2022-09-06T13:53:20.797Z,48.26
2022-09-06T13:55:49.256Z,48.09
2022-09-06T13:58:17.802Z,48.95
2022-09-06T14:00:47.297Z,48.26
2022-09-06T14:03:32.985Z,48.25
2022-09-06T14:06:01.971Z,48.52
2022-09-06T14:08:49.697Z,48.57
2022-09-06T14:11:20.757Z,49.81
2022-09-06T14:13:49.426Z,49.50
2022-09-06T14:16:18.063Z,49.18
2022-09-06T14:18:46.810Z,48.54
2022-09-06T14:21:15.271Z,48.43
2022-09-06T14:23:44.239Z,48.17
2022-09-06T14:26:13.566Z,48.33
2022-09-06T14:28:42.010Z,48.33
2022-09-06T14:31:19.372Z,48.06
2022-09-06T14:33:48.549Z,48.91
2022-09-06T14:36:20.932Z,49.52
2022-09-06T14:38:51.109Z,50.35
2022-09-06T14:41:21.223Z,49.09
2022-09-06T14:43:55.088Z,49.98
2022-09-06T14:46:27.323Z,50.54
2022-09-06T14:49:07.914Z,50.85
2022-09-06T14:51:38.730Z,50.21
2022-09-06T14:54:12.903Z,50.29
2022-09-06T14:56:44.008Z,50.20
2022-09-06T14:59:13.401Z,50.56
2022-09-06T15:01:42.316Z,51.70
2022-09-06T15:04:12.223Z,52.13
2022-09-06T15:06:45.064Z,51.73
2022-09-06T15:09:16.257Z,51.28
2022-09-06T15:11:50.777Z,51.72
2022-09-06T15:14:27.193Z,51.86
2022-09-06T15:16:59.605Z,52.71
2022-09-06T15:19:30.477Z,51.88
2022-09-06T15:21:59.157Z,51.87
2022-09-06T15:24:28.363Z,52.19
2022-09-06T15:26:57.335Z,53.08
2022-09-06T15:29:27.446Z,52.36
2022-09-06T15:31:55.971Z,52.59
2022-09-06T15:34:27.095Z,52.47
2022-09-06T15:36:56.797Z,52.87
2022-09-06T15:39:25.346Z,52.29
2022-09-06T15:41:53.944Z,51.97
2022-09-06T15:44:22.475Z,53.38
2022-09-06T15:47:00.435Z,53.11
2022-09-06T15:49:33.209Z,53.38
2022-09-06T15:52:03.725Z,53.30
2022-09-06T15:54:50.470Z,53.71
2022-09-06T15:57:19.241Z,51.96
2022-09-06T15:59:47.998Z,51.70
2022-09-06T16:02:16.842Z,51.83
2022-09-06T16:04:47.023Z,52.02
2022-09-06T16:07:15.520Z,52.87
2022-09-06T16:09:44.142Z,52.74
2022-09-06T16:12:12.682Z,52.75
2022-09-06T16:14:41.120Z,54.38
2022-09-06T16:17:11.964Z,53.70
2022-09-06T16:19:40.615Z,54.66
2022-09-06T16:22:09.087Z,54.46
2022-09-06T16:24:37.861Z,54.26
2022-09-06T16:27:06.340Z,54.32
2022-09-06T16:29:35.493Z,54.75
2022-09-06T16:32:04.363Z,56.15
2022-09-06T16:34:32.880Z,61.55
2022-09-06T16:37:07.919Z,71.99
2022-09-06T16:39:37.858Z,78.21
2022-09-06T16:42:07.339Z,81.94
2022-09-06T16:44:35.986Z,85.36
2022-09-06T16:47:05.271Z,86.50
2022-09-06T16:49:33.952Z,90.80
2022-09-06T16:52:02.929Z,90.25
2022-09-06T16:54:31.736Z,88.71
2022-09-06T16:57:02.751Z,88.36
2022-09-06T16:59:31.380Z,88.59
2022-09-06T17:02:00.184Z,88.76
2022-09-06T17:04:28.978Z,83.94
2022-09-06T17:06:58.039Z,83.45
2022-09-06T17:09:26.754Z,89.19
2022-09-06T17:11:55.341Z,87.47
2022-09-06T17:14:24.936Z,90.70
2022-09-06T17:17:07.250Z,96.20
2022-09-06T17:19:39.568Z,91.55
2022-09-06T17:22:12.783Z,96.88
2022-09-06T17:24:42.158Z,99.13
2022-09-06T17:27:11.463Z,100.00
2022-09-06T17:29:40.290Z,100.00
2022-09-06T17:32:10.504Z,100.00
2022-09-06T17:34:42.490Z,100.00
2022-09-06T17:37:11.497Z,100.00
2022-09-06T17:39:40.549Z,100.00
2022-09-06T17:42:09.715Z,100.00
2022-09-06T17:44:38.479Z,100.00
2022-09-06T17:47:15.057Z,100.00
2022-09-06T17:49:44.257Z,100.00
2022-09-06T17:52:13.856Z,100.00
2022-09-06T17:54:44.100Z,100.00
2022-09-06T17:57:12.725Z,100.00
2022-09-06T17:59:41.411Z,100.00
2022-09-06T18:02:10.598Z,100.00
2022-09-06T18:04:39.358Z,100.00
2022-09-06T18:07:08.089Z,100.00
2022-09-06T18:09:37.402Z,100.00
2022-09-06T18:12:07.078Z,100.00
2022-09-06T18:14:36.964Z,100.00
2022-09-06T18:17:08.670Z,100.00
2022-09-06T18:19:38.373Z,100.00
2022-09-06T18:22:07.210Z,100.00
2022-09-06T18:24:35.871Z,100.00
2022-09-06T18:27:05.799Z,100.00
2022-09-06T18:29:34.765Z,100.00
2022-09-06T18:32:04.596Z,100.00
2022-09-06T18:34:33.386Z,100.00
2022-09-06T18:37:02.433Z,100.00
2022-09-06T18:39:31.100Z,100.00
2022-09-06T18:42:00.219Z,100.00
2022-09-06T18:44:34.701Z,100.00
2022-09-06T18:47:08.960Z,100.00
2022-09-06T18:49:43.222Z,100.00
2022-09-06T18:52:12.828Z,100.00
2022-09-06T18:54:43.760Z,100.00
2022-09-06T18:57:13.171Z,100.00
2022-09-06T18:59:41.918Z,100.00
2022-09-06T19:02:10.851Z,100.00
2022-09-06T19:04:39.900Z,100.00
2022-09-06T19:07:08.613Z,100.00
2022-09-06T19:09:37.463Z,100.00
2022-09-06T19:12:06.314Z,100.00
2022-09-06T19:14:35.009Z,100.00
2022-09-06T19:17:04.056Z,100.00
2022-09-06T19:19:32.818Z,100.00
2022-09-06T19:22:02.057Z,100.00
2022-09-06T19:24:30.869Z,100.00
2022-09-06T19:26:59.592Z,100.00
2022-09-06T19:29:28.738Z,100.00
2022-09-06T19:31:57.698Z,100.00
2022-09-06T19:34:26.805Z,100.00
2022-09-06T19:36:57.345Z,100.00
2022-09-06T19:39:33.640Z,100.00
2022-09-06T19:42:06.042Z,100.00
2022-09-06T19:44:34.860Z,100.00
2022-09-06T19:47:03.807Z,100.00
2022-09-06T19:49:32.541Z,100.00
2022-09-06T19:52:01.752Z,100.00
2022-09-06T19:54:30.535Z,100.00
2022-09-06T19:56:59.245Z,100.00
2022-09-06T19:59:28.857Z,100.00
2022-09-06T20:01:57.705Z,100.00
2022-09-06T20:04:28.330Z,100.00
2022-09-06T20:06:57.734Z,100.00
2022-09-06T20:09:26.522Z,100.00
2022-09-06T20:11:55.260Z,100.00
2022-09-06T20:14:25.125Z,100.00
2022-09-06T20:16:53.811Z,100.00
2022-09-06T20:19:22.509Z,100.00
2022-09-06T20:21:51.195Z,100.00
2022-09-06T20:24:20.049Z,100.00
2022-09-06T20:26:53.122Z,100.00
2022-09-06T20:29:21.784Z,100.00
2022-09-06T20:31:50.485Z,100.00
2022-09-06T20:34:19.488Z,100.00
2022-09-06T20:36:48.102Z,100.00
2022-09-06T20:39:16.943Z,100.00
2022-09-06T20:41:46.741Z,100.00
2022-09-06T20:44:15.562Z,100.00
2022-09-06T20:46:44.311Z,100.00
2022-09-06T20:49:15.174Z,100.00
2022-09-06T20:51:43.840Z,100.00
2022-09-06T20:54:14.066Z,100.00
2022-09-06T20:56:43.244Z,100.00
2022-09-06T20:59:14.254Z,100.00
2022-09-06T21:01:46.395Z,100.00
2022-09-06T21:04:17.874Z,100.00
2022-09-06T21:06:46.817Z,100.00
2022-09-06T21:09:16.389Z,100.00
2022-09-06T21:11:46.778Z,100.00
2022-09-06T21:14:16.307Z,100.00
2022-09-06T21:16:45.476Z,100.00
2022-09-06T21:19:14.440Z,100.00
2022-09-06T21:21:47.911Z,100.00
2022-09-06T21:24:16.614Z,100.00
2022-09-06T21:26:45.504Z,100.00
2022-09-06T21:29:14.312Z,100.00
2022-09-06T21:31:45.362Z,100.00
2022-09-06T21:34:16.890Z,100.00
2022-09-06T21:36:46.345Z,100.00
2022-09-06T21:39:15.481Z,100.00
2022-09-06T21:41:44.790Z,100.00
2022-09-06T21:44:14.109Z,100.00
2022-09-06T21:46:43.150Z,100.00
2022-09-06T21:49:14.571Z,100.00
2022-09-06T21:51:44.007Z,100.00
2022-09-06T21:54:15.426Z,100.00
2022-09-06T21:56:44.158Z,100.00
2022-09-06T21:59:13.088Z,100.00
2022-09-06T22:01:44.973Z,100.00
2022-09-06T22:04:14.798Z,100.00
2022-09-06T22:06:43.514Z,100.00
2022-09-06T22:09:14.101Z,100.00
2022-09-06T22:11:45.018Z,100.00
2022-09-06T22:14:15.735Z,100.00
2022-09-06T22:16:45.261Z,100.00
2022-09-06T22:19:14.292Z,100.00
2022-09-06T22:21:42.975Z,100.00
2022-09-06T22:24:13.051Z,100.00
2022-09-06T22:26:42.491Z,100.00
2022-09-06T22:29:16.778Z,100.00
2022-09-06T22:31:46.285Z,100.00
2022-09-06T22:34:15.902Z,100.00
2022-09-06T22:36:44.644Z,100.00
2022-09-06T22:39:13.445Z,100.00
2022-09-06T22:41:42.199Z,100.00
2022-09-06T22:44:10.903Z,100.00
2022-09-06T22:46:39.733Z,100.00
2022-09-06T22:49:09.325Z,100.00
2022-09-06T22:51:38.053Z,100.00
2022-09-06T22:54:07.089Z,100.00
2022-09-06T22:56:36.817Z,100.00
2022-09-06T22:59:05.978Z,100.00
2022-09-06T23:01:39.399Z,100.00
2022-09-06T23:04:10.101Z,100.00
2022-09-06T23:06:38.872Z,100.00
2022-09-06T23:09:07.974Z,100.00
2022-09-06T23:11:37.513Z,100.00
2022-09-06T23:14:06.542Z,100.00
2022-09-06T23:16:36.073Z,100.00
2022-09-06T23:19:04.852Z,100.00
2022-09-06T23:21:34.320Z,100.00
2022-09-06T23:24:03.238Z,100.00
2022-09-06T23:26:33.487Z,100.00
2022-09-06T23:29:03.172Z,100.00
2022-09-06T23:31:32.795Z,100.00
2022-09-06T23:34:03.350Z,100.00
2022-09-06T23:36:33.198Z,100.00
2022-09-06T23:39:03.008Z,100.00
2022-09-06T23:41:32.009Z,100.00
2022-09-06T23:44:01.989Z,100.00
2022-09-06T23:46:31.328Z,100.00
2022-09-06T23:49:00.896Z,100.00
2022-09-06T23:51:29.684Z,100.00
2022-09-06T23:53:59.254Z,100.00
2022-09-06T23:56:27.976Z,100.00
2022-09-06T23:58:56.924Z,100.00
